sensor_id;sensor_type;location;lat;lon;timestamp;P1;durP1;ratioP1;P2;durP2;ratioP2
19800;SDS011;10060;48.274;12.214;2022-08-01T00:02:11;4.60;;;3.28;;
19800;SDS011;10060;48.274;12.214;2022-08-01T00:05:13;5.13;;;3.40;;
19800;SDS011;10060;48.274;12.214;2022-08-01T00:08:16;5.20;;;3.03;;
19800;SDS011;10060;48.274;12.214;2022-08-01T00:11:18;6.38;;;3.58;;
19800;SDS011;10060;48.274;12.214;2022-08-01T00:14:20;3.85;;;3.25;;
19800;SDS011;10060;48.274;12.214;2022-08-01T00:17:22;5.05;;;3.10;;
19800;SDS011;10060;48.274;12.214;2022-08-01T00:20:25;3.78;;;3.00;;
19800;SDS011;10060;48.274;12.214;2022-08-01T00:23:28;3.40;;;2.80;;
19800;SDS011;10060;48.274;12.214;2022-08-01T00:26:31;3.38;;;3.08;;
19800;SDS011;10060;48.274;12.214;2022-08-01T00:29:33;3.55;;;2.88;;
19800;SDS011;10060;48.274;12.214;2022-08-01T00:32:35;5.32;;;3.20;;
19800;SDS011;10060;48.274;12.214;2022-08-01T00:35:37;4.13;;;3.10;;
19800;SDS011;10060;48.274;12.214;2022-08-01T00:38:40;3.20;;;2.65;;
19800;SDS011;10060;48.274;12.214;2022-08-01T00:41:42;4.03;;;3.25;;
19800;SDS011;10060;48.274;12.214;2022-08-01T00:44:45;4.38;;;3.08;;
19800;SDS011;10060;48.274;12.214;2022-08-01T00:47:47;3.67;;;2.85;;
19800;SDS011;10060;48.274;12.214;2022-08-01T00:50:49;3.00;;;2.65;;
19800;SDS011;10060;48.274;12.214;2022-08-01T00:53:52;3.42;;;2.85;;
19800;SDS011;10060;48.274;12.214;2022-08-01T00:56:54;4.65;;;3.30;;
19800;SDS011;10060;48.274;12.214;2022-08-01T00:59:57;2.83;;;2.63;;
19800;SDS011;10060;48.274;12.214;2022-08-01T01:02:59;4.63;;;3.00;;
19800;SDS011;10060;48.274;12.214;2022-08-01T01:06:05;3.97;;;2.70;;
19800;SDS011;10060;48.274;12.214;2022-08-01T01:09:17;2.92;;;2.60;;
19800;SDS011;10060;48.274;12.214;2022-08-01T01:12:25;4.35;;;3.20;;
19800;SDS011;10060;48.274;12.214;2022-08-01T01:15:30;5.55;;;2.72;;
19800;SDS011;10060;48.274;12.214;2022-08-01T01:18:37;3.55;;;2.85;;
19800;SDS011;10060;48.274;12.214;2022-08-01T01:21:50;4.30;;;3.40;;
19800;SDS011;10060;48.274;12.214;2022-08-01T01:28:20;3.42;;;3.13;;
19800;SDS011;10060;48.274;12.214;2022-08-01T01:31:26;5.43;;;3.35;;
19800;SDS011;10060;48.274;12.214;2022-08-01T01:34:28;4.57;;;2.88;;
19800;SDS011;10060;48.274;12.214;2022-08-01T01:37:33;4.05;;;3.17;;
19800;SDS011;10060;48.274;12.214;2022-08-01T01:40:36;4.47;;;3.58;;
19800;SDS011;10060;48.274;12.214;2022-08-01T01:43:38;4.13;;;3.20;;
19800;SDS011;10060;48.274;12.214;2022-08-01T01:46:43;3.95;;;3.10;;
19800;SDS011;10060;48.274;12.214;2022-08-01T01:49:45;3.67;;;3.33;;
19800;SDS011;10060;48.274;12.214;2022-08-01T01:52:48;5.65;;;3.35;;
19800;SDS011;10060;48.274;12.214;2022-08-01T01:55:52;3.25;;;2.95;;
19800;SDS011;10060;48.274;12.214;2022-08-01T01:58:55;3.25;;;2.97;;
19800;SDS011;10060;48.274;12.214;2022-08-01T02:02:01;3.58;;;3.22;;
19800;SDS011;10060;48.274;12.214;2022-08-01T02:05:04;4.90;;;3.67;;
19800;SDS011;10060;48.274;12.214;2022-08-01T02:08:07;4.18;;;3.13;;
19800;SDS011;10060;48.274;12.214;2022-08-01T02:11:09;5.95;;;3.20;;
19800;SDS011;10060;48.274;12.214;2022-08-01T02:14:21;5.32;;;3.50;;
19800;SDS011;10060;48.274;12.214;2022-08-01T02:17:25;4.38;;;3.28;;
19800;SDS011;10060;48.274;12.214;2022-08-01T02:20:28;4.32;;;3.50;;
19800;SDS011;10060;48.274;12.214;2022-08-01T02:23:31;4.30;;;3.30;;
19800;SDS011;10060;48.274;12.214;2022-08-01T02:26:34;3.63;;;3.30;;
19800;SDS011;10060;48.274;12.214;2022-08-01T02:29:41;4.20;;;3.22;;
19800;SDS011;10060;48.274;12.214;2022-08-01T02:32:46;5.15;;;2.83;;
19800;SDS011;10060;48.274;12.214;2022-08-01T02:35:50;4.32;;;3.42;;
19800;SDS011;10060;48.274;12.214;2022-08-01T02:38:54;4.20;;;3.33;;
19800;SDS011;10060;48.274;12.214;2022-08-01T02:41:57;3.63;;;3.33;;
19800;SDS011;10060;48.274;12.214;2022-08-01T02:45:01;3.33;;;3.03;;
19800;SDS011;10060;48.274;12.214;2022-08-01T02:48:06;5.43;;;3.20;;
19800;SDS011;10060;48.274;12.214;2022-08-01T02:51:09;4.60;;;2.97;;
19800;SDS011;10060;48.274;12.214;2022-08-01T02:54:12;5.18;;;3.00;;
19800;SDS011;10060;48.274;12.214;2022-08-01T02:57:16;3.20;;;2.90;;
19800;SDS011;10060;48.274;12.214;2022-08-01T03:00:20;3.40;;;3.15;;
19800;SDS011;10060;48.274;12.214;2022-08-01T03:03:24;2.90;;;2.70;;
19800;SDS011;10060;48.274;12.214;2022-08-01T03:06:26;4.13;;;2.70;;
19800;SDS011;10060;48.274;12.214;2022-08-01T03:09:29;4.00;;;3.08;;
19800;SDS011;10060;48.274;12.214;2022-08-01T03:12:32;4.07;;;3.03;;
19800;SDS011;10060;48.274;12.214;2022-08-01T03:15:35;3.40;;;3.10;;
19800;SDS011;10060;48.274;12.214;2022-08-01T03:18:39;3.95;;;3.15;;
19800;SDS011;10060;48.274;12.214;2022-08-01T03:21:44;5.05;;;2.97;;
19800;SDS011;10060;48.274;12.214;2022-08-01T03:24:47;3.55;;;3.25;;
19800;SDS011;10060;48.274;12.214;2022-08-01T03:27:51;3.90;;;3.05;;
19800;SDS011;10060;48.274;12.214;2022-08-01T03:30:56;4.68;;;3.38;;
19800;SDS011;10060;48.274;12.214;2022-08-01T03:33:59;4.05;;;3.20;;
19800;SDS011;10060;48.274;12.214;2022-08-01T03:37:03;5.00;;;3.03;;
19800;SDS011;10060;48.274;12.214;2022-08-01T03:40:07;3.72;;;3.20;;
19800;SDS011;10060;48.274;12.214;2022-08-01T03:43:12;5.20;;;3.08;;
19800;SDS011;10060;48.274;12.214;2022-08-01T03:46:19;5.13;;;3.35;;
19800;SDS011;10060;48.274;12.214;2022-08-01T03:49:25;5.90;;;3.10;;
19800;SDS011;10060;48.274;12.214;2022-08-01T03:52:28;5.22;;;3.28;;
19800;SDS011;10060;48.274;12.214;2022-08-01T03:55:31;5.18;;;3.20;;
19800;SDS011;10060;48.274;12.214;2022-08-01T03:58:34;4.28;;;3.10;;
19800;SDS011;10060;48.274;12.214;2022-08-01T04:01:37;3.53;;;2.90;;
19800;SDS011;10060;48.274;12.214;2022-08-01T04:04:40;4.35;;;3.15;;
19800;SDS011;10060;48.274;12.214;2022-08-01T04:07:45;4.57;;;3.20;;
19800;SDS011;10060;48.274;12.214;2022-08-01T04:10:47;3.88;;;3.20;;
19800;SDS011;10060;48.274;12.214;2022-08-01T04:13:49;6.35;;;3.05;;
19800;SDS011;10060;48.274;12.214;2022-08-01T04:16:52;6.07;;;3.15;;
19800;SDS011;10060;48.274;12.214;2022-08-01T04:19:56;3.78;;;3.00;;
19800;SDS011;10060;48.274;12.214;2022-08-01T04:22:58;4.22;;;2.92;;
19800;SDS011;10060;48.274;12.214;2022-08-01T04:26:01;3.83;;;3.08;;
19800;SDS011;10060;48.274;12.214;2022-08-01T04:29:05;5.13;;;3.10;;
19800;SDS011;10060;48.274;12.214;2022-08-01T04:32:08;5.45;;;3.20;;
19800;SDS011;10060;48.274;12.214;2022-08-01T04:35:14;3.38;;;2.85;;
19800;SDS011;10060;48.274;12.214;2022-08-01T04:38:18;4.35;;;2.70;;
19800;SDS011;10060;48.274;12.214;2022-08-01T04:41:21;3.22;;;2.92;;
19800;SDS011;10060;48.274;12.214;2022-08-01T04:44:24;3.50;;;2.88;;
19800;SDS011;10060;48.274;12.214;2022-08-01T04:47:27;3.50;;;3.20;;
19800;SDS011;10060;48.274;12.214;2022-08-01T04:50:30;6.15;;;2.95;;
19800;SDS011;10060;48.274;12.214;2022-08-01T04:53:32;4.95;;;2.70;;
19800;SDS011;10060;48.274;12.214;2022-08-01T04:56:35;4.28;;;2.78;;
19800;SDS011;10060;48.274;12.214;2022-08-01T04:59:37;2.88;;;2.60;;
19800;SDS011;10060;48.274;12.214;2022-08-01T05:02:43;5.03;;;3.15;;
19800;SDS011;10060;48.274;12.214;2022-08-01T05:05:46;5.57;;;2.53;;
19800;SDS011;10060;48.274;12.214;2022-08-01T05:08:49;5.03;;;3.13;;
19800;SDS011;10060;48.274;12.214;2022-08-01T05:11:51;3.22;;;2.88;;
19800;SDS011;10060;48.274;12.214;2022-08-01T05:14:53;5.15;;;3.17;;
19800;SDS011;10060;48.274;12.214;2022-08-01T05:17:55;4.35;;;3.13;;
19800;SDS011;10060;48.274;12.214;2022-08-01T05:20:59;2.92;;;2.63;;
19800;SDS011;10060;48.274;12.214;2022-08-01T05:24:02;7.68;;;2.92;;
19800;SDS011;10060;48.274;12.214;2022-08-01T05:27:04;5.40;;;3.15;;
19800;SDS011;10060;48.274;12.214;2022-08-01T05:30:07;3.42;;;2.88;;
19800;SDS011;10060;48.274;12.214;2022-08-01T05:33:09;3.20;;;2.90;;
19800;SDS011;10060;48.274;12.214;2022-08-01T05:36:12;7.28;;;3.10;;
19800;SDS011;10060;48.274;12.214;2022-08-01T05:39:15;6.20;;;3.30;;
19800;SDS011;10060;48.274;12.214;2022-08-01T05:42:17;4.60;;;3.17;;
19800;SDS011;10060;48.274;12.214;2022-08-01T05:45:19;3.33;;;3.00;;
19800;SDS011;10060;48.274;12.214;2022-08-01T05:48:21;4.25;;;2.88;;
19800;SDS011;10060;48.274;12.214;2022-08-01T05:51:25;3.55;;;2.88;;
19800;SDS011;10060;48.274;12.214;2022-08-01T05:54:27;4.57;;;3.00;;
19800;SDS011;10060;48.274;12.214;2022-08-01T05:57:29;4.18;;;2.63;;
19800;SDS011;10060;48.274;12.214;2022-08-01T06:00:31;2.90;;;2.70;;
19800;SDS011;10060;48.274;12.214;2022-08-01T06:03:33;6.13;;;2.72;;
19800;SDS011;10060;48.274;12.214;2022-08-01T06:06:36;3.85;;;3.00;;
19800;SDS011;10060;48.274;12.214;2022-08-01T06:09:39;2.70;;;2.45;;
19800;SDS011;10060;48.274;12.214;2022-08-01T06:12:41;3.90;;;2.65;;
19800;SDS011;10060;48.274;12.214;2022-08-01T06:15:43;3.75;;;2.80;;
19800;SDS011;10060;48.274;12.214;2022-08-01T06:18:45;6.65;;;3.28;;
19800;SDS011;10060;48.274;12.214;2022-08-01T06:21:49;4.75;;;3.10;;
19800;SDS011;10060;48.274;12.214;2022-08-01T06:24:51;3.17;;;2.88;;
19800;SDS011;10060;48.274;12.214;2022-08-01T06:27:53;4.65;;;2.80;;
19800;SDS011;10060;48.274;12.214;2022-08-01T06:30:55;4.25;;;2.42;;
19800;SDS011;10060;48.274;12.214;2022-08-01T06:33:58;4.55;;;2.78;;
19800;SDS011;10060;48.274;12.214;2022-08-01T06:37:02;3.20;;;2.65;;
19800;SDS011;10060;48.274;12.214;2022-08-01T06:40:04;5.30;;;2.85;;
19800;SDS011;10060;48.274;12.214;2022-08-01T06:43:06;4.68;;;2.63;;
19800;SDS011;10060;48.274;12.214;2022-08-01T06:46:10;3.05;;;2.70;;
19800;SDS011;10060;48.274;12.214;2022-08-01T06:49:12;6.13;;;2.97;;
19800;SDS011;10060;48.274;12.214;2022-08-01T06:52:15;3.15;;;2.85;;
19800;SDS011;10060;48.274;12.214;2022-08-01T06:55:17;3.88;;;2.67;;
19800;SDS011;10060;48.274;12.214;2022-08-01T06:58:20;3.83;;;2.65;;
19800;SDS011;10060;48.274;12.214;2022-08-01T07:01:22;4.18;;;2.80;;
19800;SDS011;10060;48.274;12.214;2022-08-01T07:04:24;7.60;;;3.38;;
19800;SDS011;10060;48.274;12.214;2022-08-01T07:07:28;4.22;;;2.83;;
19800;SDS011;10060;48.274;12.214;2022-08-01T07:10:30;3.65;;;2.47;;
19800;SDS011;10060;48.274;12.214;2022-08-01T07:13:32;4.88;;;2.60;;
19800;SDS011;10060;48.274;12.214;2022-08-01T07:16:34;3.80;;;2.65;;
19800;SDS011;10060;48.274;12.214;2022-08-01T07:19:36;6.20;;;2.70;;
19800;SDS011;10060;48.274;12.214;2022-08-01T07:22:40;3.92;;;3.22;;
19800;SDS011;10060;48.274;12.214;2022-08-01T07:25:42;4.72;;;2.80;;
19800;SDS011;10060;48.274;12.214;2022-08-01T07:28:44;4.85;;;3.05;;
19800;SDS011;10060;48.274;12.214;2022-08-01T07:31:46;3.55;;;2.60;;
19800;SDS011;10060;48.274;12.214;2022-08-01T07:34:48;3.92;;;2.78;;
19800;SDS011;10060;48.274;12.214;2022-08-01T07:37:52;3.47;;;2.80;;
19800;SDS011;10060;48.274;12.214;2022-08-01T07:40:54;5.95;;;2.50;;
19800;SDS011;10060;48.274;12.214;2022-08-01T07:43:56;2.90;;;2.58;;
19800;SDS011;10060;48.274;12.214;2022-08-01T07:46:58;5.22;;;2.75;;
19800;SDS011;10060;48.274;12.214;2022-08-01T07:50:01;4.78;;;2.70;;
19800;SDS011;10060;48.274;12.214;2022-08-01T07:53:04;3.33;;;2.60;;
19800;SDS011;10060;48.274;12.214;2022-08-01T07:56:06;3.30;;;2.67;;
19800;SDS011;10060;48.274;12.214;2022-08-01T07:59:08;4.65;;;2.50;;
19800;SDS011;10060;48.274;12.214;2022-08-01T08:02:10;3.70;;;2.42;;
19800;SDS011;10060;48.274;12.214;2022-08-01T08:05:12;6.30;;;2.65;;
19800;SDS011;10060;48.274;12.214;2022-08-01T08:08:16;4.70;;;2.40;;
19800;SDS011;10060;48.274;12.214;2022-08-01T08:11:18;3.25;;;2.75;;
19800;SDS011;10060;48.274;12.214;2022-08-01T08:14:20;5.78;;;2.90;;
19800;SDS011;10060;48.274;12.214;2022-08-01T08:17:22;3.00;;;2.70;;
19800;SDS011;10060;48.274;12.214;2022-08-01T08:20:24;3.92;;;2.30;;
19800;SDS011;10060;48.274;12.214;2022-08-01T08:23:29;8.07;;;3.28;;
19800;SDS011;10060;48.274;12.214;2022-08-01T08:27:04;7.07;;;2.70;;
19800;SDS011;10060;48.274;12.214;2022-08-01T08:30:14;4.57;;;2.30;;
19800;SDS011;10060;48.274;12.214;2022-08-01T08:33:16;3.92;;;2.47;;
19800;SDS011;10060;48.274;12.214;2022-08-01T08:36:18;2.80;;;2.30;;
19800;SDS011;10060;48.274;12.214;2022-08-01T08:39:22;4.15;;;2.60;;
19800;SDS011;10060;48.274;12.214;2022-08-01T08:42:24;2.67;;;2.15;;
19800;SDS011;10060;48.274;12.214;2022-08-01T08:45:26;4.43;;;2.47;;
19800;SDS011;10060;48.274;12.214;2022-08-01T08:48:29;3.55;;;2.33;;
19800;SDS011;10060;48.274;12.214;2022-08-01T08:51:31;3.80;;;2.45;;
19800;SDS011;10060;48.274;12.214;2022-08-01T08:54:36;3.83;;;2.70;;
19800;SDS011;10060;48.274;12.214;2022-08-01T08:57:39;3.47;;;2.53;;
19800;SDS011;10060;48.274;12.214;2022-08-01T09:00:41;3.40;;;2.15;;
19800;SDS011;10060;48.274;12.214;2022-08-01T09:03:44;2.53;;;2.17;;
19800;SDS011;10060;48.274;12.214;2022-08-01T09:06:54;2.67;;;2.47;;
19800;SDS011;10060;48.274;12.214;2022-08-01T09:09:58;4.68;;;2.78;;
19800;SDS011;10060;48.274;12.214;2022-08-01T09:13:05;2.92;;;2.50;;
19800;SDS011;10060;48.274;12.214;2022-08-01T09:16:08;5.07;;;2.45;;
19800;SDS011;10060;48.274;12.214;2022-08-01T09:19:19;3.05;;;2.65;;
19800;SDS011;10060;48.274;12.214;2022-08-01T09:22:22;6.82;;;2.75;;
19800;SDS011;10060;48.274;12.214;2022-08-01T09:25:26;4.18;;;2.72;;
19800;SDS011;10060;48.274;12.214;2022-08-01T09:28:32;5.90;;;2.90;;
19800;SDS011;10060;48.274;12.214;2022-08-01T09:31:39;4.13;;;2.83;;
19800;SDS011;10060;48.274;12.214;2022-08-01T09:34:42;3.30;;;3.00;;
19800;SDS011;10060;48.274;12.214;2022-08-01T09:37:47;3.47;;;2.80;;
19800;SDS011;10060;48.274;12.214;2022-08-01T09:41:00;4.05;;;2.55;;
19800;SDS011;10060;48.274;12.214;2022-08-01T09:44:03;4.53;;;2.83;;
19800;SDS011;10060;48.274;12.214;2022-08-01T09:47:05;3.35;;;2.85;;
19800;SDS011;10060;48.274;12.214;2022-08-01T09:50:07;3.13;;;2.83;;
19800;SDS011;10060;48.274;12.214;2022-08-01T09:53:10;4.65;;;2.60;;
19800;SDS011;10060;48.274;12.214;2022-08-01T09:56:13;2.47;;;2.15;;
19800;SDS011;10060;48.274;12.214;2022-08-01T09:59:15;3.50;;;2.20;;
19800;SDS011;10060;48.274;12.214;2022-08-01T10:02:27;3.33;;;2.67;;
19800;SDS011;10060;48.274;12.214;2022-08-01T10:05:30;2.60;;;2.40;;
19800;SDS011;10060;48.274;12.214;2022-08-01T10:08:37;2.78;;;2.55;;
19800;SDS011;10060;48.274;12.214;2022-08-01T10:11:48;4.03;;;2.40;;
19800;SDS011;10060;48.274;12.214;2022-08-01T10:14:50;3.80;;;2.50;;
19800;SDS011;10060;48.274;12.214;2022-08-01T10:17:55;2.47;;;2.28;;
19800;SDS011;10060;48.274;12.214;2022-08-01T10:20:58;8.48;;;2.17;;
19800;SDS011;10060;48.274;12.214;2022-08-01T10:24:01;2.35;;;2.15;;
19800;SDS011;10060;48.274;12.214;2022-08-01T10:27:08;3.10;;;2.45;;
19800;SDS011;10060;48.274;12.214;2022-08-01T10:30:10;3.55;;;2.58;;
19800;SDS011;10060;48.274;12.214;2022-08-01T10:33:13;2.42;;;2.20;;
19800;SDS011;10060;48.274;12.214;2022-08-01T10:36:16;1.90;;;1.77;;
19800;SDS011;10060;48.274;12.214;2022-08-01T10:39:19;2.80;;;2.40;;
19800;SDS011;10060;48.274;12.214;2022-08-01T10:42:22;3.33;;;2.55;;
19800;SDS011;10060;48.274;12.214;2022-08-01T10:45:25;3.60;;;2.67;;
19800;SDS011;10060;48.274;12.214;2022-08-01T10:48:29;3.88;;;2.40;;
19800;SDS011;10060;48.274;12.214;2022-08-01T10:51:36;3.78;;;2.80;;
19800;SDS011;10060;48.274;12.214;2022-08-01T10:54:39;3.97;;;2.42;;
19800;SDS011;10060;48.274;12.214;2022-08-01T10:57:43;3.63;;;2.08;;
19800;SDS011;10060;48.274;12.214;2022-08-01T11:00:45;2.28;;;2.03;;
19800;SDS011;10060;48.274;12.214;2022-08-01T11:07:16;2.92;;;2.03;;
19800;SDS011;10060;48.274;12.214;2022-08-01T11:10:22;2.33;;;2.10;;
19800;SDS011;10060;48.274;12.214;2022-08-01T11:16:46;4.88;;;2.35;;
19800;SDS011;10060;48.274;12.214;2022-08-01T11:20:06;5.30;;;2.28;;
19800;SDS011;10060;48.274;12.214;2022-08-01T11:23:18;2.70;;;2.05;;
19800;SDS011;10060;48.274;12.214;2022-08-01T11:26:21;2.63;;;2.15;;
19800;SDS011;10060;48.274;12.214;2022-08-01T11:29:23;3.03;;;2.47;;
19800;SDS011;10060;48.274;12.214;2022-08-01T11:32:29;2.30;;;2.10;;
19800;SDS011;10060;48.274;12.214;2022-08-01T11:35:33;3.40;;;2.00;;
19800;SDS011;10060;48.274;12.214;2022-08-01T11:38:36;3.83;;;2.22;;
19800;SDS011;10060;48.274;12.214;2022-08-01T11:41:38;2.75;;;2.30;;
19800;SDS011;10060;48.274;12.214;2022-08-01T11:44:47;4.85;;;2.40;;
19800;SDS011;10060;48.274;12.214;2022-08-01T11:47:52;2.58;;;2.03;;
19800;SDS011;10060;48.274;12.214;2022-08-01T11:50:56;2.30;;;2.10;;
19800;SDS011;10060;48.274;12.214;2022-08-01T11:53:59;2.28;;;2.08;;
19800;SDS011;10060;48.274;12.214;2022-08-01T11:57:03;1.70;;;1.60;;
19800;SDS011;10060;48.274;12.214;2022-08-01T12:00:13;2.80;;;2.00;;
19800;SDS011;10060;48.274;12.214;2022-08-01T12:03:22;3.70;;;2.05;;
19800;SDS011;10060;48.274;12.214;2022-08-01T12:06:28;1.67;;;1.50;;
19800;SDS011;10060;48.274;12.214;2022-08-01T12:09:30;2.00;;;1.52;;
19800;SDS011;10060;48.274;12.214;2022-08-01T12:12:35;2.88;;;1.63;;
19800;SDS011;10060;48.274;12.214;2022-08-01T12:15:37;2.05;;;1.55;;
19800;SDS011;10060;48.274;12.214;2022-08-01T12:18:41;1.48;;;1.33;;
19800;SDS011;10060;48.274;12.214;2022-08-01T12:21:44;1.98;;;1.60;;
19800;SDS011;10060;48.274;12.214;2022-08-01T12:24:48;3.42;;;2.15;;
19800;SDS011;10060;48.274;12.214;2022-08-01T12:27:59;1.38;;;1.23;;
19800;SDS011;10060;48.274;12.214;2022-08-01T12:31:04;2.63;;;1.30;;
19800;SDS011;10060;48.274;12.214;2022-08-01T12:34:26;2.50;;;1.30;;
19800;SDS011;10060;48.274;12.214;2022-08-01T12:37:30;2.78;;;1.23;;
19800;SDS011;10060;48.274;12.214;2022-08-01T12:40:33;4.38;;;1.50;;
19800;SDS011;10060;48.274;12.214;2022-08-01T12:43:38;2.90;;;1.23;;
19800;SDS011;10060;48.274;12.214;2022-08-01T12:46:41;1.83;;;1.27;;
19800;SDS011;10060;48.274;12.214;2022-08-01T12:49:45;1.83;;;1.30;;
19800;SDS011;10060;48.274;12.214;2022-08-01T12:52:48;1.55;;;1.25;;
19800;SDS011;10060;48.274;12.214;2022-08-01T12:55:52;2.53;;;1.02;;
19800;SDS011;10060;48.274;12.214;2022-08-01T12:58:54;2.58;;;1.20;;
19800;SDS011;10060;48.274;12.214;2022-08-01T13:02:07;4.18;;;1.10;;
19800;SDS011;10060;48.274;12.214;2022-08-01T13:05:15;1.60;;;1.00;;
19800;SDS011;10060;48.274;12.214;2022-08-01T13:08:24;2.45;;;1.20;;
19800;SDS011;10060;48.274;12.214;2022-08-01T13:11:27;2.05;;;1.05;;
19800;SDS011;10060;48.274;12.214;2022-08-01T13:14:29;2.58;;;1.10;;
19800;SDS011;10060;48.274;12.214;2022-08-01T13:17:31;2.83;;;1.60;;
19800;SDS011;10060;48.274;12.214;2022-08-01T13:20:36;3.47;;;1.10;;
19800;SDS011;10060;48.274;12.214;2022-08-01T13:23:38;3.53;;;1.33;;
19800;SDS011;10060;48.274;12.214;2022-08-01T13:26:41;2.20;;;1.10;;
19800;SDS011;10060;48.274;12.214;2022-08-01T13:29:43;3.05;;;1.20;;
19800;SDS011;10060;48.274;12.214;2022-08-01T13:32:56;2.50;;;1.23;;
19800;SDS011;10060;48.274;12.214;2022-08-01T13:36:00;2.17;;;1.20;;
19800;SDS011;10060;48.274;12.214;2022-08-01T13:39:03;2.70;;;1.25;;
19800;SDS011;10060;48.274;12.214;2022-08-01T13:42:23;2.42;;;1.13;;
19800;SDS011;10060;48.274;12.214;2022-08-01T13:45:25;1.77;;;1.20;;
19800;SDS011;10060;48.274;12.214;2022-08-01T13:48:27;1.77;;;1.20;;
19800;SDS011;10060;48.274;12.214;2022-08-01T13:51:31;2.25;;;1.05;;
19800;SDS011;10060;48.274;12.214;2022-08-01T13:54:33;1.98;;;1.40;;
19800;SDS011;10060;48.274;12.214;2022-08-01T13:57:36;4.00;;;1.67;;
19800;SDS011;10060;48.274;12.214;2022-08-01T14:00:38;2.70;;;1.00;;
19800;SDS011;10060;48.274;12.214;2022-08-01T14:03:40;6.07;;;1.55;;
19800;SDS011;10060;48.274;12.214;2022-08-01T14:06:43;3.03;;;1.13;;
19800;SDS011;10060;48.274;12.214;2022-08-01T14:09:45;1.80;;;1.10;;
19800;SDS011;10060;48.274;12.214;2022-08-01T14:12:48;2.00;;;1.40;;
19800;SDS011;10060;48.274;12.214;2022-08-01T14:15:50;1.92;;;1.17;;
19800;SDS011;10060;48.274;12.214;2022-08-01T14:18:52;2.58;;;1.30;;
19800;SDS011;10060;48.274;12.214;2022-08-01T14:21:55;1.55;;;1.10;;
19800;SDS011;10060;48.274;12.214;2022-08-01T14:24:57;3.72;;;1.20;;
19800;SDS011;10060;48.274;12.214;2022-08-01T14:28:00;2.22;;;1.48;;
19800;SDS011;10060;48.274;12.214;2022-08-01T14:31:02;2.55;;;1.23;;
19800;SDS011;10060;48.274;12.214;2022-08-01T14:34:06;1.10;;;1.00;;
19800;SDS011;10060;48.274;12.214;2022-08-01T14:37:09;1.30;;;1.10;;
19800;SDS011;10060;48.274;12.214;2022-08-01T14:40:12;4.00;;;1.20;;
19800;SDS011;10060;48.274;12.214;2022-08-01T14:43:14;3.88;;;1.20;;
19800;SDS011;10060;48.274;12.214;2022-08-01T14:46:16;1.38;;;1.27;;
19800;SDS011;10060;48.274;12.214;2022-08-01T14:49:18;11.32;;;1.42;;
19800;SDS011;10060;48.274;12.214;2022-08-01T14:52:21;2.15;;;1.23;;
19800;SDS011;10060;48.274;12.214;2022-08-01T14:55:24;2.33;;;1.25;;
19800;SDS011;10060;48.274;12.214;2022-08-01T14:58:27;2.28;;;1.58;;
19800;SDS011;10060;48.274;12.214;2022-08-01T15:01:29;2.67;;;1.27;;
19800;SDS011;10060;48.274;12.214;2022-08-01T15:04:31;1.35;;;1.25;;
19800;SDS011;10060;48.274;12.214;2022-08-01T15:07:35;2.22;;;1.17;;
19800;SDS011;10060;48.274;12.214;2022-08-01T15:10:38;1.02;;;0.88;;
19800;SDS011;10060;48.274;12.214;2022-08-01T15:13:40;2.03;;;1.10;;
19800;SDS011;10060;48.274;12.214;2022-08-01T15:16:42;2.25;;;1.20;;
19800;SDS011;10060;48.274;12.214;2022-08-01T15:19:44;1.45;;;1.20;;
19800;SDS011;10060;48.274;12.214;2022-08-01T15:22:48;1.33;;;1.20;;
19800;SDS011;10060;48.274;12.214;2022-08-01T15:25:50;2.05;;;0.93;;
19800;SDS011;10060;48.274;12.214;2022-08-01T15:28:52;5.18;;;1.95;;
19800;SDS011;10060;48.274;12.214;2022-08-01T15:31:54;2.78;;;1.30;;
19800;SDS011;10060;48.274;12.214;2022-08-01T15:34:56;2.83;;;1.02;;
19800;SDS011;10060;48.274;12.214;2022-08-01T15:38:00;4.38;;;1.60;;
19800;SDS011;10060;48.274;12.214;2022-08-01T15:41:02;3.25;;;1.40;;
19800;SDS011;10060;48.274;12.214;2022-08-01T15:44:04;3.00;;;1.45;;
19800;SDS011;10060;48.274;12.214;2022-08-01T15:47:06;1.67;;;1.23;;
19800;SDS011;10060;48.274;12.214;2022-08-01T15:50:09;1.98;;;1.20;;
19800;SDS011;10060;48.274;12.214;2022-08-01T15:53:12;1.70;;;0.90;;
19800;SDS011;10060;48.274;12.214;2022-08-01T15:56:14;2.17;;;1.20;;
19800;SDS011;10060;48.274;12.214;2022-08-01T15:59:16;1.20;;;0.90;;
19800;SDS011;10060;48.274;12.214;2022-08-01T16:02:18;2.97;;;1.00;;
19800;SDS011;10060;48.274;12.214;2022-08-01T16:05:21;2.25;;;1.08;;
19800;SDS011;10060;48.274;12.214;2022-08-01T16:08:24;2.15;;;1.17;;
19800;SDS011;10060;48.274;12.214;2022-08-01T16:11:26;1.42;;;0.95;;
19800;SDS011;10060;48.274;12.214;2022-08-01T16:14:28;4.45;;;1.20;;
19800;SDS011;10060;48.274;12.214;2022-08-01T16:17:30;2.08;;;1.02;;
19800;SDS011;10060;48.274;12.214;2022-08-01T16:20:33;3.70;;;1.08;;
19800;SDS011;10060;48.274;12.214;2022-08-01T16:23:36;1.98;;;1.30;;
19800;SDS011;10060;48.274;12.214;2022-08-01T16:26:38;1.95;;;1.05;;
19800;SDS011;10060;48.274;12.214;2022-08-01T16:29:42;1.85;;;1.00;;
19800;SDS011;10060;48.274;12.214;2022-08-01T16:32:44;3.00;;;1.10;;
19800;SDS011;10060;48.274;12.214;2022-08-01T16:35:46;2.67;;;1.08;;
19800;SDS011;10060;48.274;12.214;2022-08-01T16:38:50;3.00;;;1.20;;
19800;SDS011;10060;48.274;12.214;2022-08-01T16:41:52;4.35;;;1.65;;
19800;SDS011;10060;48.274;12.214;2022-08-01T16:44:54;2.22;;;1.40;;
19800;SDS011;10060;48.274;12.214;2022-08-01T16:47:58;1.52;;;1.17;;
19800;SDS011;10060;48.274;12.214;2022-08-01T16:51:00;3.92;;;1.20;;
19800;SDS011;10060;48.274;12.214;2022-08-01T16:54:04;2.60;;;1.42;;
19800;SDS011;10060;48.274;12.214;2022-08-01T16:57:06;4.95;;;1.83;;
19800;SDS011;10060;48.274;12.214;2022-08-01T17:00:09;2.50;;;1.80;;
19800;SDS011;10060;48.274;12.214;2022-08-01T17:03:11;4.13;;;1.67;;
19800;SDS011;10060;48.274;12.214;2022-08-01T17:06:13;3.28;;;1.80;;
19800;SDS011;10060;48.274;12.214;2022-08-01T17:09:17;1.70;;;1.60;;
19800;SDS011;10060;48.274;12.214;2022-08-01T17:12:19;2.00;;;1.67;;
19800;SDS011;10060;48.274;12.214;2022-08-01T17:15:21;3.47;;;2.05;;
19800;SDS011;10060;48.274;12.214;2022-08-01T17:18:23;4.10;;;1.95;;
19800;SDS011;10060;48.274;12.214;2022-08-01T17:21:25;1.95;;;1.58;;
19800;SDS011;10060;48.274;12.214;2022-08-01T17:24:29;1.95;;;1.75;;
19800;SDS011;10060;48.274;12.214;2022-08-01T17:27:31;3.38;;;2.10;;
19800;SDS011;10060;48.274;12.214;2022-08-01T17:30:33;3.08;;;1.90;;
19800;SDS011;10060;48.274;12.214;2022-08-01T17:33:36;7.05;;;2.00;;
19800;SDS011;10060;48.274;12.214;2022-08-01T17:36:40;3.25;;;2.28;;
19800;SDS011;10060;48.274;12.214;2022-08-01T17:39:43;5.32;;;2.28;;
19800;SDS011;10060;48.274;12.214;2022-08-01T17:42:45;3.42;;;2.05;;
19800;SDS011;10060;48.274;12.214;2022-08-01T17:45:47;2.33;;;2.08;;
19800;SDS011;10060;48.274;12.214;2022-08-01T17:48:52;2.72;;;1.80;;
19800;SDS011;10060;48.274;12.214;2022-08-01T17:51:54;2.55;;;1.98;;
19800;SDS011;10060;48.274;12.214;2022-08-01T17:54:57;2.50;;;2.03;;
19800;SDS011;10060;48.274;12.214;2022-08-01T17:58:00;2.17;;;1.90;;
19800;SDS011;10060;48.274;12.214;2022-08-01T18:01:04;4.60;;;2.42;;
19800;SDS011;10060;48.274;12.214;2022-08-01T18:04:06;2.50;;;2.00;;
19800;SDS011;10060;48.274;12.214;2022-08-01T18:07:08;4.57;;;2.30;;
19800;SDS011;10060;48.274;12.214;2022-08-01T18:10:11;4.35;;;2.00;;
19800;SDS011;10060;48.274;12.214;2022-08-01T18:13:13;4.45;;;1.85;;
19800;SDS011;10060;48.274;12.214;2022-08-01T18:16:17;2.85;;;2.03;;
19800;SDS011;10060;48.274;12.214;2022-08-01T18:19:19;1.90;;;1.67;;